SWR2TV EDDF-LSZH
Flight info
| Callsign | SWR2TV |
|---|---|
| Flight time | 0h 30m |
| Altitude | 21000 |
| Route | ANEKI2L ANEKI Y163 NEKLO/N0407F230 Y163 NATOR T732 NEGRA |
| Aircraft | A320/M-SDE3FGHIRWY/LB1 |
Departure
| Time | 2026-05-04 21:00 |
|---|---|
| Airport | Frankfurt Main Airport (EDDF) |
Arrival
| Time | 2026-05-04 21:31 |
|---|---|
| Airport | Zürich Airport (LSZH) |
| Time | Latitude | Longitude | Altitude | Speed | Heading |
|---|---|---|---|---|---|
| 2026-05-04 20:41 | 50.04960 | 8.59076 | 362 ft | 0 kts | 160° |
| 2026-05-04 20:55 | 50.04964 | 8.59073 | 362 ft | 3 kts | 160° |
| 2026-05-04 20:55 | 50.04989 | 8.59059 | 361 ft | 3 kts | 159° |
| 2026-05-04 20:55 | 50.05010 | 8.59049 | 360 ft | 4 kts | 176° |
| 2026-05-04 20:55 | 50.05035 | 8.59056 | 360 ft | 4 kts | 217° |
| 2026-05-04 20:56 | 50.05046 | 8.59074 | 360 ft | 4 kts | 245° |
| 2026-05-04 20:56 | 50.05052 | 8.59096 | 360 ft | 0 kts | 249° |
| 2026-05-04 20:58 | 50.05049 | 8.59085 | 363 ft | 6 kts | 250° |
| 2026-05-04 20:58 | 50.05019 | 8.58955 | 362 ft | 20 kts | 250° |
| 2026-05-04 20:58 | 50.04970 | 8.58743 | 361 ft | 20 kts | 251° |
| 2026-05-04 20:58 | 50.04870 | 8.58694 | 362 ft | 17 kts | 162° |
| 2026-05-04 20:59 | 50.04761 | 8.58754 | 367 ft | 16 kts | 159° |
| 2026-05-04 20:59 | 50.04658 | 8.58767 | 370 ft | 14 kts | 187° |
| 2026-05-04 20:59 | 50.04561 | 8.58690 | 371 ft | 19 kts | 217° |
| 2026-05-04 20:59 | 50.04478 | 8.58561 | 370 ft | 15 kts | 250° |
| 2026-05-04 21:00 | 50.04431 | 8.58354 | 373 ft | 44 kts | 250° |
| 2026-05-04 21:00 | 50.04235 | 8.57531 | 367 ft | 115 kts | 249° |
| 2026-05-04 21:00 | 50.03889 | 8.56096 | 414 ft | 160 kts | 249° |
| 2026-05-04 21:00 | 50.03506 | 8.54560 | 1177 ft | 150 kts | 249° |
| 2026-05-04 21:01 | 50.03127 | 8.53034 | 1799 ft | 155 kts | 249° |
| 2026-05-04 21:01 | 50.02693 | 8.51375 | 2168 ft | 175 kts | 240° |
| 2026-05-04 21:01 | 50.01749 | 8.50103 | 2555 ft | 195 kts | 202° |
| 2026-05-04 21:01 | 50.00317 | 8.49687 | 2905 ft | 222 kts | 182° |
| 2026-05-04 21:02 | 49.98731 | 8.49794 | 3583 ft | 230 kts | 169° |
| 2026-05-04 21:02 | 49.97315 | 8.50879 | 4456 ft | 231 kts | 139° |
| 2026-05-04 21:02 | 49.96042 | 8.52414 | 5317 ft | 233 kts | 153° |
| 2026-05-04 21:02 | 49.94409 | 8.53114 | 5756 ft | 257 kts | 178° |
| 2026-05-04 21:03 | 49.92580 | 8.53204 | 6313 ft | 273 kts | 178° |
| 2026-05-04 21:03 | 49.90660 | 8.53302 | 7163 ft | 278 kts | 178° |
| 2026-05-04 21:03 | 49.88710 | 8.53412 | 8067 ft | 282 kts | 178° |
| 2026-05-04 21:03 | 49.86735 | 8.53535 | 8948 ft | 285 kts | 178° |
| 2026-05-04 21:04 | 49.84741 | 8.53667 | 9813 ft | 288 kts | 178° |
| 2026-05-04 21:04 | 49.82700 | 8.53805 | 10424 ft | 303 kts | 178° |
| 2026-05-04 21:04 | 49.80518 | 8.53952 | 10705 ft | 326 kts | 178° |
| 2026-05-04 21:04 | 49.78181 | 8.54188 | 11116 ft | 343 kts | 175° |
| 2026-05-04 21:05 | 49.75780 | 8.54564 | 11834 ft | 348 kts | 174° |
| 2026-05-04 21:05 | 49.73359 | 8.55005 | 12600 ft | 352 kts | 174° |
| 2026-05-04 21:05 | 49.70921 | 8.55473 | 13348 ft | 355 kts | 174° |
| 2026-05-04 21:05 | 49.68452 | 8.55947 | 14059 ft | 359 kts | 174° |
| 2026-05-04 21:06 | 49.65959 | 8.56411 | 14743 ft | 362 kts | 174° |
| 2026-05-04 21:06 | 49.63445 | 8.56867 | 15401 ft | 366 kts | 174° |
| 2026-05-04 21:06 | 49.60902 | 8.57319 | 16054 ft | 370 kts | 174° |
| 2026-05-04 21:06 | 49.58370 | 8.57764 | 16686 ft | 373 kts | 174° |
| 2026-05-04 21:07 | 49.55776 | 8.58213 | 17299 ft | 377 kts | 174° |
| 2026-05-04 21:07 | 49.53158 | 8.58668 | 17906 ft | 380 kts | 174° |
| 2026-05-04 21:07 | 49.50519 | 8.59129 | 18495 ft | 384 kts | 174° |
| 2026-05-04 21:07 | 49.47854 | 8.59593 | 19070 ft | 387 kts | 175° |
| 2026-05-04 21:08 | 49.45162 | 8.60061 | 19668 ft | 391 kts | 175° |
| 2026-05-04 21:08 | 49.42455 | 8.60528 | 20245 ft | 394 kts | 175° |
| 2026-05-04 21:08 | 49.39713 | 8.60994 | 20801 ft | 397 kts | 175° |
| 2026-05-04 21:08 | 49.36961 | 8.61464 | 21353 ft | 400 kts | 175° |
| 2026-05-04 21:09 | 49.34169 | 8.61947 | 21859 ft | 403 kts | 174° |
| 2026-05-04 21:09 | 49.31374 | 8.62434 | 22363 ft | 406 kts | 174° |
| 2026-05-04 21:09 | 49.28558 | 8.62926 | 22844 ft | 409 kts | 174° |
| 2026-05-04 21:09 | 49.25716 | 8.63422 | 23304 ft | 412 kts | 174° |
| 2026-05-04 21:10 | 49.22861 | 8.63917 | 23749 ft | 415 kts | 175° |
| 2026-05-04 21:10 | 49.19986 | 8.64410 | 24188 ft | 417 kts | 175° |
| 2026-05-04 21:10 | 49.17086 | 8.64904 | 24600 ft | 419 kts | 175° |
| 2026-05-04 21:10 | 49.14161 | 8.65404 | 25002 ft | 422 kts | 175° |
| 2026-05-04 21:11 | 49.11248 | 8.65904 | 25407 ft | 424 kts | 175° |
| 2026-05-04 21:11 | 49.08306 | 8.66409 | 25820 ft | 426 kts | 175° |
| 2026-05-04 21:11 | 49.05353 | 8.66913 | 26193 ft | 428 kts | 175° |
| 2026-05-04 21:11 | 49.02380 | 8.67417 | 26561 ft | 430 kts | 175° |
| 2026-05-04 21:12 | 48.99420 | 8.67920 | 26915 ft | 432 kts | 175° |
| 2026-05-04 21:12 | 48.96397 | 8.68432 | 27265 ft | 434 kts | 175° |
| 2026-05-04 21:12 | 48.93393 | 8.68938 | 27599 ft | 436 kts | 175° |
| 2026-05-04 21:12 | 48.90365 | 8.69452 | 27909 ft | 438 kts | 175° |
| 2026-05-04 21:13 | 48.87338 | 8.69968 | 27976 ft | 437 kts | 175° |
| 2026-05-04 21:13 | 48.84359 | 8.70478 | 27988 ft | 435 kts | 175° |
| 2026-05-04 21:13 | 48.81313 | 8.70999 | 27984 ft | 434 kts | 175° |
| 2026-05-04 21:13 | 48.78313 | 8.71508 | 27993 ft | 434 kts | 175° |
| 2026-05-04 21:14 | 48.75355 | 8.72006 | 27991 ft | 434 kts | 175° |
| 2026-05-04 21:14 | 48.72345 | 8.72510 | 27991 ft | 433 kts | 175° |
| 2026-05-04 21:14 | 48.69359 | 8.73011 | 27991 ft | 433 kts | 175° |
| 2026-05-04 21:14 | 48.66363 | 8.73512 | 27992 ft | 432 kts | 174° |
| 2026-05-04 21:15 | 48.63376 | 8.74010 | 27987 ft | 431 kts | 175° |
| 2026-05-04 21:15 | 48.60397 | 8.74507 | 27990 ft | 431 kts | 174° |
| 2026-05-04 21:15 | 48.57415 | 8.75009 | 27989 ft | 431 kts | 174° |
| 2026-05-04 21:15 | 48.54437 | 8.75512 | 27988 ft | 431 kts | 174° |
| 2026-05-04 21:16 | 48.51444 | 8.76016 | 27990 ft | 431 kts | 175° |
| 2026-05-04 21:16 | 48.48466 | 8.76512 | 27986 ft | 431 kts | 174° |
| 2026-05-04 21:16 | 48.45491 | 8.77008 | 27669 ft | 429 kts | 174° |
| 2026-05-04 21:16 | 48.42521 | 8.77505 | 26164 ft | 432 kts | 174° |
| 2026-05-04 21:17 | 48.39504 | 8.78004 | 24660 ft | 436 kts | 175° |
| 2026-05-04 21:17 | 48.36501 | 8.78499 | 23411 ft | 434 kts | 175° |
| 2026-05-04 21:17 | 48.33513 | 8.78992 | 22334 ft | 429 kts | 175° |
| 2026-05-04 21:17 | 48.30606 | 8.79474 | 21283 ft | 422 kts | 175° |
| 2026-05-04 21:18 | 48.27703 | 8.79955 | 20192 ft | 416 kts | 174° |
| 2026-05-04 21:18 | 48.24830 | 8.80432 | 19168 ft | 410 kts | 174° |
| 2026-05-04 21:18 | 48.22026 | 8.80898 | 18152 ft | 408 kts | 174° |
| 2026-05-04 21:18 | 48.19211 | 8.81363 | 17563 ft | 402 kts | 174° |
| 2026-05-04 21:19 | 48.16448 | 8.81815 | 16918 ft | 395 kts | 174° |
| 2026-05-04 21:19 | 48.13729 | 8.82262 | 15945 ft | 393 kts | 175° |
| 2026-05-04 21:19 | 48.11038 | 8.82706 | 15331 ft | 387 kts | 174° |
| 2026-05-04 21:19 | 48.08372 | 8.83145 | 14779 ft | 384 kts | 174° |
| 2026-05-04 21:20 | 48.05733 | 8.83580 | 14205 ft | 380 kts | 174° |
| 2026-05-04 21:20 | 48.03111 | 8.83712 | 13673 ft | 374 kts | 189° |
| 2026-05-04 21:20 | 48.00711 | 8.82375 | 13223 ft | 367 kts | 213° |
| 2026-05-04 21:20 | 47.98796 | 8.79925 | 12721 ft | 362 kts | 226° |
| 2026-05-04 21:21 | 47.97189 | 8.77067 | 12192 ft | 358 kts | 231° |
| 2026-05-04 21:21 | 47.95670 | 8.74157 | 11673 ft | 353 kts | 231° |
| 2026-05-04 21:21 | 47.94109 | 8.71351 | 11157 ft | 349 kts | 228° |
| 2026-05-04 21:21 | 47.92483 | 8.68720 | 10685 ft | 344 kts | 225° |
| 2026-05-04 21:22 | 47.90820 | 8.66273 | 10547 ft | 329 kts | 223° |
| 2026-05-04 21:22 | 47.89178 | 8.63994 | 10418 ft | 315 kts | 222° |
| 2026-05-04 21:22 | 47.87593 | 8.61846 | 10280 ft | 300 kts | 221° |
| 2026-05-04 21:22 | 47.86083 | 8.59808 | 10027 ft | 293 kts | 221° |
| 2026-05-04 21:23 | 47.84591 | 8.57790 | 9859 ft | 288 kts | 222° |
| 2026-05-04 21:23 | 47.83109 | 8.55773 | 9740 ft | 288 kts | 222° |
| 2026-05-04 21:23 | 47.81629 | 8.53750 | 9587 ft | 289 kts | 222° |
| 2026-05-04 21:23 | 47.80140 | 8.51709 | 9032 ft | 294 kts | 222° |
| 2026-05-04 21:24 | 47.78625 | 8.49626 | 8438 ft | 299 kts | 222° |
| 2026-05-04 21:24 | 47.77086 | 8.47505 | 7828 ft | 303 kts | 222° |
| 2026-05-04 21:24 | 47.75531 | 8.45367 | 7202 ft | 308 kts | 222° |
| 2026-05-04 21:24 | 47.73944 | 8.43194 | 6566 ft | 311 kts | 222° |
| 2026-05-04 21:25 | 47.72339 | 8.40998 | 5930 ft | 314 kts | 222° |
| 2026-05-04 21:25 | 47.70726 | 8.38794 | 5305 ft | 316 kts | 222° |
| 2026-05-04 21:25 | 47.68976 | 8.36943 | 5155 ft | 301 kts | 207° |
| 2026-05-04 21:25 | 47.67084 | 8.35837 | 5087 ft | 284 kts | 194° |
| 2026-05-04 21:26 | 47.65199 | 8.35422 | 5016 ft | 263 kts | 181° |
| 2026-05-04 21:26 | 47.63446 | 8.35583 | 4861 ft | 244 kts | 169° |
| 2026-05-04 21:26 | 47.61866 | 8.36206 | 4770 ft | 228 kts | 158° |
| 2026-05-04 21:26 | 47.60471 | 8.37184 | 4590 ft | 222 kts | 148° |
| 2026-05-04 21:27 | 47.59229 | 8.38508 | 4359 ft | 216 kts | 139° |
| 2026-05-04 21:27 | 47.58142 | 8.39991 | 4061 ft | 209 kts | 136° |
| 2026-05-04 21:27 | 47.57116 | 8.41400 | 3782 ft | 193 kts | 136° |
| 2026-05-04 21:27 | 47.56174 | 8.42694 | 3550 ft | 173 kts | 137° |
| 2026-05-04 21:28 | 47.55335 | 8.43849 | 3301 ft | 158 kts | 136° |
| 2026-05-04 21:28 | 47.54556 | 8.44926 | 3045 ft | 149 kts | 136° |
| 2026-05-04 21:28 | 47.53804 | 8.45963 | 2786 ft | 146 kts | 138° |
| 2026-05-04 21:28 | 47.53070 | 8.46968 | 2558 ft | 142 kts | 138° |
| 2026-05-04 21:29 | 47.52351 | 8.47947 | 2367 ft | 142 kts | 138° |
| 2026-05-04 21:29 | 47.51622 | 8.48919 | 2202 ft | 141 kts | 139° |
| 2026-05-04 21:29 | 47.50905 | 8.49909 | 2058 ft | 141 kts | 136° |
| 2026-05-04 21:29 | 47.50199 | 8.50913 | 1873 ft | 140 kts | 137° |
| 2026-05-04 21:30 | 47.49485 | 8.51886 | 1768 ft | 140 kts | 138° |
| 2026-05-04 21:30 | 47.48769 | 8.52862 | 1624 ft | 140 kts | 138° |
| 2026-05-04 21:30 | 47.48058 | 8.53818 | 1440 ft | 138 kts | 136° |
| 2026-05-04 21:30 | 47.47397 | 8.54720 | 1391 ft | 110 kts | 137° |
| 2026-05-04 21:31 | 47.46644 | 8.55749 | 1396 ft | 62 kts | 137° |
| 2026-05-04 21:31 | 47.46416 | 8.55935 | 1399 ft | 29 kts | 163° |
| 2026-05-04 21:31 | 47.46274 | 8.55992 | 1407 ft | 19 kts | 167° |
| 2026-05-04 21:32 | 47.46144 | 8.56000 | 1406 ft | 19 kts | 187° |
| 2026-05-04 21:32 | 47.46008 | 8.55976 | 1406 ft | 21 kts | 185° |
| 2026-05-04 21:32 | 47.45909 | 8.55935 | 1411 ft | 11 kts | 200° |
| 2026-05-04 21:32 | 47.45857 | 8.55911 | 1409 ft | 6 kts | 199° |
| 2026-05-04 21:33 | 47.45828 | 8.55897 | 1410 ft | 0 kts | 199° |
| 2026-05-04 21:34 | 47.45822 | 8.55893 | 1414 ft | 7 kts | 199° |
| 2026-05-04 21:34 | 47.45671 | 8.55858 | 1411 ft | 28 kts | 187° |
| 2026-05-04 21:34 | 47.45542 | 8.55837 | 1415 ft | 18 kts | 185° |
| 2026-05-04 21:35 | 47.45512 | 8.55701 | 1407 ft | 17 kts | 275° |
| 2026-05-04 21:35 | 47.45522 | 8.55545 | 1412 ft | 12 kts | 275° |
| 2026-05-04 21:35 | 47.45498 | 8.55435 | 1405 ft | 13 kts | 198° |
| 2026-05-04 21:35 | 47.45417 | 8.55480 | 1405 ft | 12 kts | 154° |
| 2026-05-04 21:36 | 47.45354 | 8.55524 | 1406 ft | 9 kts | 155° |
| 2026-05-04 21:36 | 47.45304 | 8.55558 | 1406 ft | 8 kts | 155° |
| 2026-05-04 21:36 | 47.45270 | 8.55654 | 1407 ft | 16 kts | 97° |
| 2026-05-04 21:36 | 47.45258 | 8.55825 | 1413 ft | 18 kts | 96° |
| 2026-05-04 21:37 | 47.45259 | 8.55932 | 1413 ft | 5 kts | 47° |
| 2026-05-04 21:37 | 47.45291 | 8.55937 | 1411 ft | 4 kts | 6° |
| 2026-05-04 21:37 | 47.45317 | 8.55941 | 1414 ft | 3 kts | 5° |
| 2026-05-04 21:37 | 47.45333 | 8.55943 | 1411 ft | 1 kts | 5° |
| 2026-05-04 21:38 | 47.45336 | 8.55944 | 1407 ft | 0 kts | 5° |
| 2026-05-04 21:38 | 47.45337 | 8.55944 | 1413 ft | 0 kts | 5° |
| 2026-05-04 21:46 | 47.45329 | 8.55943 | 1407 ft | 0 kts | 6° |